sensor_id;sensor_type;location;lat;lon;timestamp;pressure;altitude;pressure_sealevel;temperature;humidity
50977;BME280;36992;48.200;12.418;2023-02-18T00:01:09;97495.31;;;14.82;48.19
50977;BME280;36992;48.200;12.418;2023-02-18T00:03:36;97504.00;;;14.84;48.01
50977;BME280;36992;48.200;12.418;2023-02-18T00:06:09;97512.03;;;14.89;47.97
50977;BME280;36992;48.200;12.418;2023-02-18T00:08:36;97506.69;;;14.84;47.67
50977;BME280;36992;48.200;12.418;2023-02-18T00:11:04;97505.59;;;14.85;47.77
50977;BME280;36992;48.200;12.418;2023-02-18T00:13:32;97506.69;;;14.84;47.90
50977;BME280;36992;48.200;12.418;2023-02-18T00:16:00;97507.50;;;14.84;47.98
50977;BME280;36992;48.200;12.418;2023-02-18T00:18:27;97508.78;;;14.87;47.82
50977;BME280;36992;48.200;12.418;2023-02-18T00:20:53;97502.59;;;14.87;47.69
50977;BME280;36992;48.200;12.418;2023-02-18T00:23:20;97511.22;;;14.89;47.65
50977;BME280;36992;48.200;12.418;2023-02-18T00:25:46;97501.78;;;14.86;47.73
50977;BME280;36992;48.200;12.418;2023-02-18T00:28:13;97499.56;;;14.88;47.81
50977;BME280;36992;48.200;12.418;2023-02-18T00:30:41;97501.19;;;14.89;47.95
50977;BME280;36992;48.200;12.418;2023-02-18T00:33:08;97499.56;;;14.88;48.20
50977;BME280;36992;48.200;12.418;2023-02-18T00:35:34;97494.66;;;14.90;47.94
50977;BME280;36992;48.200;12.418;2023-02-18T00:38:01;97494.66;;;14.90;48.16
50977;BME280;36992;48.200;12.418;2023-02-18T00:40:27;97499.56;;;14.88;48.03
50977;BME280;36992;48.200;12.418;2023-02-18T00:42:54;97494.94;;;14.89;48.03
50977;BME280;36992;48.200;12.418;2023-02-18T00:45:20;97487.91;;;14.88;48.27
50977;BME280;36992;48.200;12.418;2023-02-18T00:47:48;97491.13;;;14.90;48.42
50977;BME280;36992;48.200;12.418;2023-02-18T00:50:15;97488.91;;;14.92;47.98
50977;BME280;36992;48.200;12.418;2023-02-18T00:52:41;97489.22;;;14.90;48.25
50977;BME280;36992;48.200;12.418;2023-02-18T00:55:07;97498.97;;;14.91;48.18
50977;BME280;36992;48.200;12.418;2023-02-18T00:57:34;97493.53;;;14.91;48.10
50977;BME280;36992;48.200;12.418;2023-02-18T01:00:01;97503.91;;;14.89;48.24
50977;BME280;36992;48.200;12.418;2023-02-18T01:02:27;97497.38;;;14.90;48.01
50977;BME280;36992;48.200;12.418;2023-02-18T01:04:55;97502.16;;;14.93;48.30
50977;BME280;36992;48.200;12.418;2023-02-18T01:07:21;97495.75;;;14.89;48.20
50977;BME280;36992;48.200;12.418;2023-02-18T01:09:48;97501.19;;;14.89;48.29
50977;BME280;36992;48.200;12.418;2023-02-18T01:12:15;97496.84;;;14.88;48.07
50977;BME280;36992;48.200;12.418;2023-02-18T01:14:42;97495.75;;;14.89;48.33
50977;BME280;36992;48.200;12.418;2023-02-18T01:17:09;97504.47;;;14.86;48.42
50977;BME280;36992;48.200;12.418;2023-02-18T01:19:35;97497.16;;;14.87;48.13
50977;BME280;36992;48.200;12.418;2023-02-18T01:22:03;97502.78;;;14.90;48.24
50977;BME280;36992;48.200;12.418;2023-02-18T01:24:31;97501.19;;;14.89;48.47
50977;BME280;36992;48.200;12.418;2023-02-18T01:26:57;97494.94;;;14.89;48.22
50977;BME280;36992;48.200;12.418;2023-02-18T01:29:24;97490.34;;;14.89;48.24
50977;BME280;36992;48.200;12.418;2023-02-18T01:31:51;97497.38;;;14.90;48.57
50977;BME280;36992;48.200;12.418;2023-02-18T01:34:17;97489.53;;;14.89;48.43
50977;BME280;36992;48.200;12.418;2023-02-18T01:36:44;97487.09;;;14.87;48.88
50977;BME280;36992;48.200;12.418;2023-02-18T01:39:12;97489.53;;;14.89;48.82
50977;BME280;36992;48.200;12.418;2023-02-18T01:41:38;97485.50;;;14.86;48.59
50977;BME280;36992;48.200;12.418;2023-02-18T01:44:17;97481.09;;;14.90;48.71
50977;BME280;36992;48.200;12.418;2023-02-18T01:46:44;97484.69;;;14.86;48.93
50977;BME280;36992;48.200;12.418;2023-02-18T01:49:13;97484.69;;;14.86;48.66
50977;BME280;36992;48.200;12.418;2023-02-18T01:51:44;97481.66;;;14.87;48.89
50977;BME280;36992;48.200;12.418;2023-02-18T01:54:18;97480.06;;;14.86;48.71
50977;BME280;36992;48.200;12.418;2023-02-18T01:56:50;97483.41;;;14.83;48.97
50977;BME280;36992;48.200;12.418;2023-02-18T01:59:22;97479.56;;;14.84;48.98
50977;BME280;36992;48.200;12.418;2023-02-18T02:01:49;97472.84;;;14.81;49.03
50977;BME280;36992;48.200;12.418;2023-02-18T02:04:16;97478.06;;;14.78;48.81
50977;BME280;36992;48.200;12.418;2023-02-18T02:06:42;97466.59;;;14.81;48.67
50977;BME280;36992;48.200;12.418;2023-02-18T02:09:12;97479.06;;;14.82;48.92
50977;BME280;36992;48.200;12.418;2023-02-18T02:11:53;97466.03;;;14.84;48.48
50977;BME280;36992;48.200;12.418;2023-02-18T02:14:39;97469.84;;;14.83;48.80
50977;BME280;36992;48.200;12.418;2023-02-18T02:17:12;97460.41;;;14.80;48.60
50977;BME280;36992;48.200;12.418;2023-02-18T02:20:16;97456.78;;;14.85;48.59
50977;BME280;36992;48.200;12.418;2023-02-18T02:23:05;97450.63;;;14.79;48.61
50977;BME280;36992;48.200;12.418;2023-02-18T02:26:01;97429.84;;;14.75;49.06
50977;BME280;36992;48.200;12.418;2023-02-18T02:28:52;97433.63;;;14.74;49.01
50977;BME280;36992;48.200;12.418;2023-02-18T02:31:47;97435.25;;;14.75;48.75
50977;BME280;36992;48.200;12.418;2023-02-18T02:34:37;97435.25;;;14.75;48.56
50977;BME280;36992;48.200;12.418;2023-02-18T02:37:13;97425.31;;;14.70;48.99
50977;BME280;36992;48.200;12.418;2023-02-18T02:39:46;97429.91;;;14.69;48.96
50977;BME280;36992;48.200;12.418;2023-02-18T02:42:24;97425.59;;;14.68;49.21
50977;BME280;36992;48.200;12.418;2023-02-18T02:44:55;97432.63;;;14.69;49.08
50977;BME280;36992;48.200;12.418;2023-02-18T02:47:27;97418.56;;;14.67;49.21
50977;BME280;36992;48.200;12.418;2023-02-18T02:50:00;97432.13;;;14.67;49.33
50977;BME280;36992;48.200;12.418;2023-02-18T02:52:31;97429.41;;;14.67;49.18
50977;BME280;36992;48.200;12.418;2023-02-18T02:54:59;97426.22;;;14.65;49.23
50977;BME280;36992;48.200;12.418;2023-02-18T02:57:44;97425.00;;;14.72;49.17
50977;BME280;36992;48.200;12.418;2023-02-18T03:00:13;97416.97;;;14.66;49.29
50977;BME280;36992;48.200;12.418;2023-02-18T03:02:53;97423.50;;;14.65;49.34
50977;BME280;36992;48.200;12.418;2023-02-18T03:05:31;97409.31;;;14.68;49.18
50977;BME280;36992;48.200;12.418;2023-02-18T03:08:13;97416.16;;;14.66;49.24
50977;BME280;36992;48.200;12.418;2023-02-18T03:10:49;97419.19;;;14.64;49.54
50977;BME280;36992;48.200;12.418;2023-02-18T03:13:27;97407.72;;;14.67;49.09
50977;BME280;36992;48.200;12.418;2023-02-18T03:16:06;97394.97;;;14.68;49.21
50977;BME280;36992;48.200;12.418;2023-02-18T03:18:39;97399.69;;;14.62;49.33
50977;BME280;36992;48.200;12.418;2023-02-18T03:21:11;97412.94;;;14.64;49.09
50977;BME280;36992;48.200;12.418;2023-02-18T03:23:44;97422.38;;;14.66;49.28
50977;BME280;36992;48.200;12.418;2023-02-18T03:26:13;97405.09;;;14.62;49.19
50977;BME280;36992;48.200;12.418;2023-02-18T03:28:41;97411.34;;;14.63;49.36
50977;BME280;36992;48.200;12.418;2023-02-18T03:31:13;97422.47;;;14.61;49.37
50977;BME280;36992;48.200;12.418;2023-02-18T03:33:44;97414.84;;;14.63;49.34
50977;BME280;36992;48.200;12.418;2023-02-18T03:36:13;97413.75;;;14.64;49.24
50977;BME280;36992;48.200;12.418;2023-02-18T03:38:43;97412.31;;;14.67;48.89
50977;BME280;36992;48.200;12.418;2023-02-18T03:41:11;97409.75;;;14.62;49.14
50977;BME280;36992;48.200;12.418;2023-02-18T03:43:39;97413.75;;;14.64;48.98
50977;BME280;36992;48.200;12.418;2023-02-18T03:46:06;97417.06;;;14.61;49.07
50977;BME280;36992;48.200;12.418;2023-02-18T03:48:32;97405.09;;;14.62;49.13
50977;BME280;36992;48.200;12.418;2023-02-18T03:50:59;97399.69;;;14.62;49.02
50977;BME280;36992;48.200;12.418;2023-02-18T03:53:27;97399.38;;;14.64;49.14
50977;BME280;36992;48.200;12.418;2023-02-18T03:55:53;97389.94;;;14.61;48.84
50977;BME280;36992;48.200;12.418;2023-02-18T03:58:19;97395.06;;;14.63;49.11
50977;BME280;36992;48.200;12.418;2023-02-18T04:00:46;97388.34;;;14.60;48.92
50977;BME280;36992;48.200;12.418;2023-02-18T04:03:12;97401.91;;;14.60;49.39
50977;BME280;36992;48.200;12.418;2023-02-18T04:05:39;97395.66;;;14.60;49.17
50977;BME280;36992;48.200;12.418;2023-02-18T04:08:05;97389.16;;;14.61;49.40
50977;BME280;36992;48.200;12.418;2023-02-18T04:10:33;97398.09;;;14.61;49.38
50977;BME280;36992;48.200;12.418;2023-02-18T04:13:00;97400.78;;;14.61;49.30
50977;BME280;36992;48.200;12.418;2023-02-18T04:15:26;97401.91;;;14.60;49.35
50977;BME280;36992;48.200;12.418;2023-02-18T04:17:53;97389.47;;;14.59;49.79
50977;BME280;36992;48.200;12.418;2023-02-18T04:20:19;97402.72;;;14.61;49.79
50977;BME280;36992;48.200;12.418;2023-02-18T04:22:46;97399.19;;;14.60;49.88
50977;BME280;36992;48.200;12.418;2023-02-18T04:25:13;97390.03;;;14.56;49.91
50977;BME280;36992;48.200;12.418;2023-02-18T04:27:40;97390.03;;;14.56;49.95
50977;BME280;36992;48.200;12.418;2023-02-18T04:30:07;97399.38;;;14.50;50.15
50977;BME280;36992;48.200;12.418;2023-02-18T04:32:34;97406.94;;;14.53;50.25
50977;BME280;36992;48.200;12.418;2023-02-18T04:35:00;97401.31;;;14.49;50.11
50977;BME280;36992;48.200;12.418;2023-02-18T04:37:27;97395.69;;;14.46;49.91
50977;BME280;36992;48.200;12.418;2023-02-18T04:39:53;97396.19;;;14.48;49.75
50977;BME280;36992;48.200;12.418;2023-02-18T04:42:20;97396.19;;;14.48;49.76
50977;BME280;36992;48.200;12.418;2023-02-18T04:44:48;97399.38;;;14.50;49.58
50977;BME280;36992;48.200;12.418;2023-02-18T04:47:14;97397.28;;;14.47;49.72
50977;BME280;36992;48.200;12.418;2023-02-18T04:49:41;97400.28;;;14.45;49.79
50977;BME280;36992;48.200;12.418;2023-02-18T04:52:07;97400.59;;;14.43;49.66
50977;BME280;36992;48.200;12.418;2023-02-18T04:54:34;97400.28;;;14.45;49.30
50977;BME280;36992;48.200;12.418;2023-02-18T04:57:00;97404.91;;;14.44;49.19
50977;BME280;36992;48.200;12.418;2023-02-18T04:59:26;97408.72;;;14.43;49.36
50977;BME280;36992;48.200;12.418;2023-02-18T05:01:54;97409.34;;;14.40;49.17
50977;BME280;36992;48.200;12.418;2023-02-18T05:04:21;97409.34;;;14.40;49.06
50977;BME280;36992;48.200;12.418;2023-02-18T05:06:47;97412.81;;;14.41;49.28
50977;BME280;36992;48.200;12.418;2023-02-18T05:09:14;97421.56;;;14.38;49.31
50977;BME280;36992;48.200;12.418;2023-02-18T05:11:41;97406.09;;;14.38;49.57
50977;BME280;36992;48.200;12.418;2023-02-18T05:14:08;97410.25;;;14.36;49.44
50977;BME280;36992;48.200;12.418;2023-02-18T05:16:34;97421.06;;;14.36;49.71
50977;BME280;36992;48.200;12.418;2023-02-18T05:19:02;97408.31;;;14.36;49.70
50977;BME280;36992;48.200;12.418;2023-02-18T05:21:29;97403.81;;;14.32;49.85
50977;BME280;36992;48.200;12.418;2023-02-18T05:23:55;97401.88;;;14.32;49.63
50977;BME280;36992;48.200;12.418;2023-02-18T05:26:22;97399.16;;;14.32;49.77
50977;BME280;36992;48.200;12.418;2023-02-18T05:28:49;97401.88;;;14.32;49.89
50977;BME280;36992;48.200;12.418;2023-02-18T05:31:15;97406.50;;;14.32;49.74
50977;BME280;36992;48.200;12.418;2023-02-18T05:33:42;97400.28;;;14.31;49.78
50977;BME280;36992;48.200;12.418;2023-02-18T05:36:10;97414.16;;;14.29;49.42
50977;BME280;36992;48.200;12.418;2023-02-18T05:38:36;97406.31;;;14.28;49.30
50977;BME280;36992;48.200;12.418;2023-02-18T05:41:03;97400.38;;;14.26;49.68
50977;BME280;36992;48.200;12.418;2023-02-18T05:43:30;97419.34;;;14.26;49.43
50977;BME280;36992;48.200;12.418;2023-02-18T05:46:16;97409.31;;;14.26;49.64
50977;BME280;36992;48.200;12.418;2023-02-18T05:48:42;97406.59;;;14.26;49.31
50977;BME280;36992;48.200;12.418;2023-02-18T05:51:10;97411.72;;;14.28;49.46
50977;BME280;36992;48.200;12.418;2023-02-18T05:53:37;97403.06;;;14.26;49.57
50977;BME280;36992;48.200;12.418;2023-02-18T05:56:04;97406.31;;;14.28;49.68
50977;BME280;36992;48.200;12.418;2023-02-18T05:58:31;97392.47;;;14.29;49.50
50977;BME280;36992;48.200;12.418;2023-02-18T06:00:57;97400.28;;;14.31;49.65
50977;BME280;36992;48.200;12.418;2023-02-18T06:03:24;97391.66;;;14.29;49.56
50977;BME280;36992;48.200;12.418;2023-02-18T06:05:50;97397.06;;;14.29;49.72
50977;BME280;36992;48.200;12.418;2023-02-18T06:08:18;97392.66;;;14.33;49.50
50977;BME280;36992;48.200;12.418;2023-02-18T06:10:45;97392.13;;;14.31;49.28
50977;BME280;36992;48.200;12.418;2023-02-18T06:13:11;97388.31;;;14.32;49.45
50977;BME280;36992;48.200;12.418;2023-02-18T06:15:38;97384.53;;;14.33;49.51
50977;BME280;36992;48.200;12.418;2023-02-18T06:18:05;97386.63;;;14.36;49.50
50977;BME280;36992;48.200;12.418;2023-02-18T06:20:32;97394.28;;;14.34;49.70
50977;BME280;36992;48.200;12.418;2023-02-18T06:22:58;97392.66;;;14.33;49.33
50977;BME280;36992;48.200;12.418;2023-02-18T06:25:26;97387.75;;;14.35;49.50
50977;BME280;36992;48.200;12.418;2023-02-18T06:27:52;97393.44;;;14.34;49.53
50977;BME280;36992;48.200;12.418;2023-02-18T06:30:19;97398.09;;;14.33;49.60
50977;BME280;36992;48.200;12.418;2023-02-18T06:32:46;97406.50;;;14.32;49.45
50977;BME280;36992;48.200;12.418;2023-02-18T06:35:12;97395.97;;;14.30;49.63
50977;BME280;36992;48.200;12.418;2023-02-18T06:37:39;97398.66;;;14.30;49.70
50977;BME280;36992;48.200;12.418;2023-02-18T06:40:06;97414.94;;;14.30;49.80
50977;BME280;36992;48.200;12.418;2023-02-18T06:42:34;97391.94;;;14.27;49.85
50977;BME280;36992;48.200;12.418;2023-02-18T06:45:01;97391.66;;;14.29;49.63
50977;BME280;36992;48.200;12.418;2023-02-18T06:47:27;97395.97;;;14.30;49.52
50977;BME280;36992;48.200;12.418;2023-02-18T06:49:54;97398.66;;;14.30;49.55
50977;BME280;36992;48.200;12.418;2023-02-18T06:52:20;97388.13;;;14.28;49.50
50977;BME280;36992;48.200;12.418;2023-02-18T06:54:47;97397.06;;;14.29;49.40
50977;BME280;36992;48.200;12.418;2023-02-18T06:57:13;97410.13;;;14.27;49.36
50977;BME280;36992;48.200;12.418;2023-02-18T06:59:41;97414.16;;;14.29;49.56
50977;BME280;36992;48.200;12.418;2023-02-18T07:02:09;97405.19;;;14.29;49.37
50977;BME280;36992;48.200;12.418;2023-02-18T07:04:36;97414.94;;;14.30;49.19
50977;BME280;36992;48.200;12.418;2023-02-18T07:07:02;97423.66;;;14.27;49.37
50977;BME280;36992;48.200;12.418;2023-02-18T07:09:29;97423.06;;;14.30;49.27
50977;BME280;36992;48.200;12.418;2023-02-18T07:11:55;97416.53;;;14.31;49.09
50977;BME280;36992;48.200;12.418;2023-02-18T07:14:22;97431.69;;;14.32;49.14
50977;BME280;36992;48.200;12.418;2023-02-18T07:16:50;97428.09;;;14.37;49.40
50977;BME280;36992;48.200;12.418;2023-02-18T07:19:17;97425.69;;;14.35;49.38
50977;BME280;36992;48.200;12.418;2023-02-18T07:21:43;97425.06;;;14.38;49.25
50977;BME280;36992;48.200;12.418;2023-02-18T07:24:10;97432.41;;;14.38;49.10
50977;BME280;36992;48.200;12.418;2023-02-18T07:26:36;97425.88;;;14.39;48.91
50977;BME280;36992;48.200;12.418;2023-02-18T07:29:03;97426.38;;;14.41;48.66
50977;BME280;36992;48.200;12.418;2023-02-18T07:31:29;97421.78;;;14.41;48.65
50977;BME280;36992;48.200;12.418;2023-02-18T07:33:57;97419.25;;;14.45;48.69
50977;BME280;36992;48.200;12.418;2023-02-18T07:36:23;97423.88;;;14.44;48.79
50977;BME280;36992;48.200;12.418;2023-02-18T07:38:50;97413.25;;;14.48;48.52
50977;BME280;36992;48.200;12.418;2023-02-18T07:41:18;97421.59;;;14.52;48.47
50977;BME280;36992;48.200;12.418;2023-02-18T07:43:44;97419.38;;;14.54;48.51
50977;BME280;36992;48.200;12.418;2023-02-18T07:46:11;97422.00;;;14.59;48.06
50977;BME280;36992;48.200;12.418;2023-02-18T07:48:37;97419.78;;;14.61;47.69
50977;BME280;36992;48.200;12.418;2023-02-18T07:51:06;97418.56;;;14.67;48.05
50977;BME280;36992;48.200;12.418;2023-02-18T07:53:34;97421.56;;;14.66;47.54
50977;BME280;36992;48.200;12.418;2023-02-18T07:56:01;97421.78;;;14.69;47.38
50977;BME280;36992;48.200;12.418;2023-02-18T07:58:29;97419.00;;;14.75;47.30
50977;BME280;36992;48.200;12.418;2023-02-18T08:00:56;97416.47;;;14.78;46.81
50977;BME280;36992;48.200;12.418;2023-02-18T08:03:25;97396.91;;;14.81;46.93
50977;BME280;36992;48.200;12.418;2023-02-18T08:05:52;97404.75;;;14.83;46.60
50977;BME280;36992;48.200;12.418;2023-02-18T08:08:23;97405.72;;;14.87;46.61
50977;BME280;36992;48.200;12.418;2023-02-18T08:10:50;97425.34;;;14.84;46.11
50977;BME280;36992;48.200;12.418;2023-02-18T08:13:17;97401.13;;;14.88;46.48
50977;BME280;36992;48.200;12.418;2023-02-18T08:15:44;97407.31;;;14.88;46.12
50977;BME280;36992;48.200;12.418;2023-02-18T08:18:15;97407.84;;;14.90;46.35
50977;BME280;36992;48.200;12.418;2023-02-18T08:20:42;97406.53;;;14.88;46.46
50977;BME280;36992;48.200;12.418;2023-02-18T08:23:09;97407.13;;;14.84;46.46
50977;BME280;36992;48.200;12.418;2023-02-18T08:25:37;97412.25;;;14.86;46.39
50977;BME280;36992;48.200;12.418;2023-02-18T08:28:03;97416.56;;;14.87;46.14
50977;BME280;36992;48.200;12.418;2023-02-18T08:30:30;97413.56;;;14.89;46.81
50977;BME280;36992;48.200;12.418;2023-02-18T08:32:56;97394.28;;;14.90;46.49
50977;BME280;36992;48.200;12.418;2023-02-18T08:35:23;97389.84;;;14.94;46.51
50977;BME280;36992;48.200;12.418;2023-02-18T08:37:49;97383.00;;;14.97;46.25
50977;BME280;36992;48.200;12.418;2023-02-18T08:40:16;97378.69;;;14.96;46.30
50977;BME280;36992;48.200;12.418;2023-02-18T08:42:44;97373.66;;;15.03;46.78
50977;BME280;36992;48.200;12.418;2023-02-18T08:45:10;97385.50;;;15.07;46.56
50977;BME280;36992;48.200;12.418;2023-02-18T08:47:37;97386.00;;;15.09;46.58
50977;BME280;36992;48.200;12.418;2023-02-18T08:50:04;97379.97;;;15.13;46.62
50977;BME280;36992;48.200;12.418;2023-02-18T08:52:30;97389.59;;;15.19;46.29
50977;BME280;36992;48.200;12.418;2023-02-18T08:54:57;97384.19;;;15.19;46.76
50977;BME280;36992;48.200;12.418;2023-02-18T08:57:23;97381.94;;;15.21;46.59
50977;BME280;36992;48.200;12.418;2023-02-18T08:59:51;97383.25;;;15.23;46.56
50977;BME280;36992;48.200;12.418;2023-02-18T09:02:18;97388.09;;;15.27;46.24
50977;BME280;36992;48.200;12.418;2023-02-18T09:04:44;97382.66;;;15.27;46.77
50977;BME280;36992;48.200;12.418;2023-02-18T09:07:10;97381.53;;;15.28;46.41
50977;BME280;36992;48.200;12.418;2023-02-18T09:09:37;97371.66;;;15.32;46.07
50977;BME280;36992;48.200;12.418;2023-02-18T09:12:04;97381.91;;;15.35;46.21
50977;BME280;36992;48.200;12.418;2023-02-18T09:14:30;97368.03;;;15.36;46.01
50977;BME280;36992;48.200;12.418;2023-02-18T09:16:59;97369.34;;;15.39;46.26
50977;BME280;36992;48.200;12.418;2023-02-18T09:19:26;97366.81;;;15.43;46.05
50977;BME280;36992;48.200;12.418;2023-02-18T09:21:52;97387.13;;;15.45;46.12
50977;BME280;36992;48.200;12.418;2023-02-18T09:24:19;97378.16;;;15.45;46.01
50977;BME280;36992;48.200;12.418;2023-02-18T09:26:45;97364.75;;;15.48;45.19
50977;BME280;36992;48.200;12.418;2023-02-18T09:29:12;97366.38;;;15.49;45.01
50977;BME280;36992;48.200;12.418;2023-02-18T09:31:38;97373.41;;;15.50;45.05
50977;BME280;36992;48.200;12.418;2023-02-18T09:34:06;97377.59;;;15.57;45.35
50977;BME280;36992;48.200;12.418;2023-02-18T09:36:33;97360.81;;;15.55;44.54
50977;BME280;36992;48.200;12.418;2023-02-18T09:38:59;97351.84;;;15.54;45.10
50977;BME280;36992;48.200;12.418;2023-02-18T09:41:33;97371.84;;;15.58;44.91
50977;BME280;36992;48.200;12.418;2023-02-18T09:44:05;97357.50;;;15.58;45.33
50977;BME280;36992;48.200;12.418;2023-02-18T09:46:38;97342.47;;;15.60;45.07
50977;BME280;36992;48.200;12.418;2023-02-18T09:49:13;97341.69;;;15.60;45.13
50977;BME280;36992;48.200;12.418;2023-02-18T09:51:42;97353.97;;;15.57;44.82
50977;BME280;36992;48.200;12.418;2023-02-18T09:54:09;97344.53;;;15.55;44.96
50977;BME280;36992;48.200;12.418;2023-02-18T09:56:36;97354.44;;;15.59;44.64
50977;BME280;36992;48.200;12.418;2023-02-18T09:59:05;97326.38;;;15.64;44.80
50977;BME280;36992;48.200;12.418;2023-02-18T10:01:37;97333.41;;;15.65;44.46
50977;BME280;36992;48.200;12.418;2023-02-18T10:04:12;97336.63;;;15.67;44.59
50977;BME280;36992;48.200;12.418;2023-02-18T10:06:42;97323.03;;;15.67;44.64
50977;BME280;36992;48.200;12.418;2023-02-18T10:09:18;97342.88;;;15.68;43.86
50977;BME280;36992;48.200;12.418;2023-02-18T10:11:48;97327.16;;;15.64;44.23
50977;BME280;36992;48.200;12.418;2023-02-18T10:14:16;97337.03;;;15.60;44.58
50977;BME280;36992;48.200;12.418;2023-02-18T10:16:43;97329.72;;;15.61;44.20
50977;BME280;36992;48.200;12.418;2023-02-18T10:19:19;97334.53;;;15.64;44.16
50977;BME280;36992;48.200;12.418;2023-02-18T10:21:47;97321.09;;;15.59;44.43
50977;BME280;36992;48.200;12.418;2023-02-18T10:24:22;97321.25;;;15.62;43.88
50977;BME280;36992;48.200;12.418;2023-02-18T10:26:50;97303.19;;;15.58;44.01
50977;BME280;36992;48.200;12.418;2023-02-18T10:29:19;97317.84;;;15.57;44.42
50977;BME280;36992;48.200;12.418;2023-02-18T10:31:51;97305.56;;;15.59;44.38
50977;BME280;36992;48.200;12.418;2023-02-18T10:34:27;97297.13;;;15.61;44.33
50977;BME280;36992;48.200;12.418;2023-02-18T10:37:00;97295.41;;;15.65;44.74
50977;BME280;36992;48.200;12.418;2023-02-18T10:39:42;97278.78;;;15.67;44.72
50977;BME280;36992;48.200;12.418;2023-02-18T10:42:19;97286.63;;;15.68;44.04
50977;BME280;36992;48.200;12.418;2023-02-18T10:45:00;97257.25;;;15.70;43.78
50977;BME280;36992;48.200;12.418;2023-02-18T10:47:36;97277.53;;;15.73;44.10
50977;BME280;36992;48.200;12.418;2023-02-18T10:50:10;97261.44;;;15.76;44.37
50977;BME280;36992;48.200;12.418;2023-02-18T10:52:42;97266.22;;;15.80;44.09
50977;BME280;36992;48.200;12.418;2023-02-18T10:55:11;97246.09;;;15.81;43.65
50977;BME280;36992;48.200;12.418;2023-02-18T10:57:47;97241.00;;;15.88;44.03
50977;BME280;36992;48.200;12.418;2023-02-18T11:00:17;97235.56;;;15.88;43.82
50977;BME280;36992;48.200;12.418;2023-02-18T11:02:45;97242.28;;;15.90;43.41
50977;BME280;36992;48.200;12.418;2023-02-18T11:05:21;97237.72;;;16.00;43.62
50977;BME280;36992;48.200;12.418;2023-02-18T11:07:50;97233.94;;;16.10;43.75
50977;BME280;36992;48.200;12.418;2023-02-18T11:10:21;97227.09;;;16.21;43.62
50977;BME280;36992;48.200;12.418;2023-02-18T11:12:51;97216.03;;;16.26;43.70
50977;BME280;36992;48.200;12.418;2023-02-18T11:15:23;97208.84;;;16.30;43.48
50977;BME280;36992;48.200;12.418;2023-02-18T11:17:51;97206.00;;;16.36;42.91
50977;BME280;36992;48.200;12.418;2023-02-18T11:20:27;97209.50;;;16.45;42.96
50977;BME280;36992;48.200;12.418;2023-02-18T11:22:57;97207.28;;;16.47;43.08
50977;BME280;36992;48.200;12.418;2023-02-18T11:25:25;97209.50;;;16.54;42.91
50977;BME280;36992;48.200;12.418;2023-02-18T11:27:55;97199.31;;;16.59;42.69
50977;BME280;36992;48.200;12.418;2023-02-18T11:30:24;97214.97;;;16.63;42.94
50977;BME280;36992;48.200;12.418;2023-02-18T11:32:54;97194.19;;;16.67;42.78
50977;BME280;36992;48.200;12.418;2023-02-18T11:35:24;97189.72;;;16.71;42.83
50977;BME280;36992;48.200;12.418;2023-02-18T11:37:52;97195.94;;;16.71;42.84
50977;BME280;36992;48.200;12.418;2023-02-18T11:40:21;97179.13;;;16.78;43.00
50977;BME280;36992;48.200;12.418;2023-02-18T11:42:49;97183.91;;;16.81;42.37
50977;BME280;36992;48.200;12.418;2023-02-18T11:45:27;97173.19;;;16.85;42.44
50977;BME280;36992;48.200;12.418;2023-02-18T11:47:59;97174.47;;;16.96;42.24
50977;BME280;36992;48.200;12.418;2023-02-18T11:50:29;97164.22;;;16.93;41.81
50977;BME280;36992;48.200;12.418;2023-02-18T11:52:56;97161.16;;;16.95;41.75
50977;BME280;36992;48.200;12.418;2023-02-18T11:55:26;97156.88;;;17.03;41.80
50977;BME280;36992;48.200;12.418;2023-02-18T11:57:56;97154.28;;;17.06;42.48
50977;BME280;36992;48.200;12.418;2023-02-18T12:00:34;97137.16;;;17.15;42.45
50977;BME280;36992;48.200;12.418;2023-02-18T12:03:05;97132.66;;;17.19;42.11
50977;BME280;36992;48.200;12.418;2023-02-18T12:05:35;97143.19;;;17.29;42.41
50977;BME280;36992;48.200;12.418;2023-02-18T12:08:06;97131.97;;;17.31;42.11
50977;BME280;36992;48.200;12.418;2023-02-18T12:10:39;97133.25;;;17.33;41.84
50977;BME280;36992;48.200;12.418;2023-02-18T12:13:19;97121.69;;;17.36;41.85
50977;BME280;36992;48.200;12.418;2023-02-18T12:15:54;97118.16;;;17.36;41.90
50977;BME280;36992;48.200;12.418;2023-02-18T12:18:48;97134.50;;;17.36;41.72
50977;BME280;36992;48.200;12.418;2023-02-18T12:21:28;97120.88;;;17.36;41.60
50977;BME280;36992;48.200;12.418;2023-02-18T12:24:01;97116.25;;;17.36;41.75
50977;BME280;36992;48.200;12.418;2023-02-18T12:26:32;97106.28;;;17.49;42.36
50977;BME280;36992;48.200;12.418;2023-02-18T12:29:15;97097.78;;;17.42;41.82
50977;BME280;36992;48.200;12.418;2023-02-18T12:31:55;97095.72;;;17.48;41.79
50977;BME280;36992;48.200;12.418;2023-02-18T12:34:36;97091.84;;;17.49;41.69
50977;BME280;36992;48.200;12.418;2023-02-18T12:37:19;97082.53;;;17.50;41.51
50977;BME280;36992;48.200;12.418;2023-02-18T12:40:03;97078.84;;;17.55;40.92
50977;BME280;36992;48.200;12.418;2023-02-18T12:42:42;97070.03;;;17.58;40.72
50977;BME280;36992;48.200;12.418;2023-02-18T12:45:33;97070.63;;;17.63;41.54
50977;BME280;36992;48.200;12.418;2023-02-18T12:48:16;97069.66;;;17.68;40.91
50977;BME280;36992;48.200;12.418;2023-02-18T12:51:01;97065.94;;;17.73;40.63
50977;BME280;36992;48.200;12.418;2023-02-18T12:53:48;97066.06;;;17.76;40.47
50977;BME280;36992;48.200;12.418;2023-02-18T12:59:35;97059.59;;;17.81;39.86
50977;BME280;36992;48.200;12.418;2023-02-18T13:02:18;97059.16;;;17.79;39.87
50977;BME280;36992;48.200;12.418;2023-02-18T13:04:58;97068.28;;;17.83;39.79
50977;BME280;36992;48.200;12.418;2023-02-18T13:07:45;97053.97;;;17.86;39.96